Time;durP1;ratioP1;P1;durP2;ratioP2;P2;SDS_P1;SDS_P2;PMS_P1;PMS_P2;Temp;Humidity;BMP_temperature;BMP_pressure;BME280_temperature;BME280_humidity;BME280_pressure;Samples;Min_cycle;Max_cycle;Signal;HPM_P1;HPM_P2
2022/03/06 00:00:52;;;;;;;36.05;20.90;;;;;;;2.37;66.47;100992.20;2769037;85;21098;-67
2022/03/06 00:04:54;;;;;;;29.27;19.52;;;;;;;2.35;66.22;100991.40;2778468;85;21083;-67
2022/03/06 00:08:56;;;;;;;26.68;17.52;;;;;;;2.30;65.75;100988.93;2769079;86;21101;-67
2022/03/06 00:12:57;;;;;;;31.62;19.50;;;;;;;2.39;65.77;100993.87;2769270;85;21105;-67
2022/03/06 00:16:59;;;;;;;33.88;21.95;;;;;;;2.43;65.31;100987.59;2752028;86;21662;-67
2022/03/06 00:21:00;;;;;;;29.87;19.85;;;;;;;2.44;64.92;100981.86;2724067;87;21034;-67
2022/03/06 00:25:05;;;;;;;32.05;21.25;;;;;;;2.47;65.26;100986.16;2723814;87;21070;-67
2022/03/06 00:29:07;;;;;;;27.55;20.08;;;;;;;2.47;64.52;100987.47;2724421;87;21106;-67
2022/03/06 00:33:09;;;;;;;44.93;21.93;;;;;;;2.46;65.30;100988.38;2723954;86;21105;-67
2022/03/06 00:37:10;;;;;;;34.18;20.40;;;;;;;2.44;64.71;100988.42;2723985;87;21074;-67
2022/03/06 00:41:13;;;;;;;27.00;17.95;;;;;;;2.41;65.60;100983.30;2745576;86;21097;-67
2022/03/06 00:45:15;;;;;;;35.15;21.68;;;;;;;2.24;68.41;100982.59;2732193;87;22074;-67
2022/03/06 00:49:16;;;;;;;36.33;23.32;;;;;;;2.11;67.67;100993.52;2732500;87;21583;-68
2022/03/06 00:53:18;;;;;;;60.20;32.23;;;;;;;1.83;70.24;100989.24;2731697;87;21074;-67
2022/03/06 00:57:20;;;;;;;44.42;27.15;;;;;;;1.61;69.56;100990.41;2732001;87;21050;-67
2022/03/06 01:01:21;;;;;;;43.58;25.68;;;;;;;1.55;70.05;100993.24;2732137;87;21066;-67
2022/03/06 01:05:23;;;;;;;44.03;27.62;;;;;;;1.42;69.43;100991.48;2731940;87;21430;-67
2022/03/06 01:09:25;;;;;;;30.32;19.55;;;;;;;1.45;70.42;100986.13;2731791;87;21046;-67
2022/03/06 01:13:26;;;;;;;24.10;18.65;;;;;;;1.47;72.68;100979.07;2731859;87;21050;-66
2022/03/06 01:17:28;;;;;;;54.70;31.93;;;;;;;1.38;76.11;100978.07;2731777;87;21081;-67
2022/03/06 01:21:29;;;;;;;61.30;38.23;;;;;;;1.35;74.37;100986.01;2731602;87;22301;-67
2022/03/06 01:25:32;;;;;;;68.65;39.58;;;;;;;1.21;73.30;100978.59;2731504;87;21053;-67
2022/03/06 01:29:34;;;;;;;67.27;36.68;;;;;;;1.30;73.30;100983.56;2731300;87;21136;-67
2022/03/06 01:33:36;;;;;;;65.40;36.88;;;;;;;1.32;73.36;100984.80;2730899;87;21066;-67
2022/03/06 01:37:37;;;;;;;50.58;34.95;;;;;;;1.22;72.09;100973.31;2730910;87;21690;-67
2022/03/06 01:41:39;;;;;;;63.15;32.40;;;;;;;1.17;71.40;100970.42;2726484;87;21095;-68
2022/03/06 01:45:41;;;;;;;48.83;29.32;;;;;;;1.13;69.77;100969.22;2723179;87;21134;-67
2022/03/06 01:49:42;;;;;;;56.75;31.40;;;;;;;1.04;68.77;100971.27;2723115;87;21574;-67
2022/03/06 01:53:44;;;;;;;42.45;25.70;;;;;;;1.14;68.54;100968.75;2798162;84;21059;-67
2022/03/06 01:57:47;;;;;;;34.63;22.80;;;;;;;1.34;67.67;100964.63;2798265;85;21628;-67
2022/03/06 02:01:49;;;;;;;49.45;29.12;;;;;;;1.49;67.11;100968.07;2798703;85;21119;-67
2022/03/06 02:05:50;;;;;;;52.93;28.45;;;;;;;1.55;68.57;100967.02;2798452;85;21079;-67
2022/03/06 02:09:52;;;;;;;36.33;23.40;;;;;;;1.56;67.00;100966.95;2798548;85;21074;-67
2022/03/06 02:13:53;;;;;;;37.40;24.85;;;;;;;1.61;65.23;100968.59;2797895;85;21043;-67
2022/03/06 02:17:55;;;;;;;37.70;24.40;;;;;;;1.66;65.81;100960.94;2798170;85;21059;-67
2022/03/06 02:21:57;;;;;;;37.78;24.55;;;;;;;1.77;66.75;100967.16;2798396;85;21036;-67
2022/03/06 02:25:59;;;;;;;41.95;26.57;;;;;;;1.70;68.10;100966.52;2798354;85;21544;-67
2022/03/06 02:30:07;;;;;;;44.90;24.40;;;;;;;1.55;68.05;100970.48;2798357;85;21087;-67
2022/03/06 02:34:09;;;;;;;50.50;29.92;;;;;;;1.50;67.93;100972.41;2797897;84;21040;-67
2022/03/06 02:38:11;;;;;;;34.53;21.65;;;;;;;1.48;68.40;100970.77;2797977;85;21687;-67
2022/03/06 02:42:29;;;;;;;49.27;28.07;;;;;;;1.59;66.09;100963.85;2778032;85;21035;-67
2022/03/06 02:46:30;;;;;;;32.73;22.22;;;;;;;1.73;66.79;100960.28;2768118;86;21097;-67
2022/03/06 02:50:35;;;;;;;45.40;26.05;;;;;;;1.85;66.42;100957.25;2718269;87;21042;-67
2022/03/06 02:54:37;;;;;;;36.08;21.85;;;;;;;1.82;67.24;100956.05;2718662;87;21046;-67
2022/03/06 02:58:39;;;;;;;45.25;26.17;;;;;;;1.83;67.65;100949.02;2718323;86;21023;-67
2022/03/06 03:02:42;;;;;;;39.18;26.02;;;;;;;1.81;67.87;100949.09;2718245;87;21054;-67
2022/03/06 03:06:45;;;;;;;32.28;21.27;;;;;;;1.81;67.61;100953.03;2718349;87;21003;-67
2022/03/06 03:10:47;;;;;;;38.28;23.12;;;;;;;1.92;64.82;100958.34;2718665;87;21093;-67
2022/03/06 03:14:48;;;;;;;39.53;27.48;;;;;;;1.95;66.27;100956.47;2718380;87;21729;-67
2022/03/06 03:18:50;;;;;;;41.23;24.80;;;;;;;1.87;69.74;100956.34;2718244;87;21046;-67
2022/03/06 03:22:52;;;;;;;45.48;25.88;;;;;;;1.62;68.48;100958.03;2718752;86;21058;-67
2022/03/06 03:26:53;;;;;;;36.68;22.30;;;;;;;1.65;68.46;100967.56;2718461;86;21097;-67
2022/03/06 03:30:55;;;;;;;41.35;24.12;;;;;;;1.71;67.32;100958.17;2718710;87;21046;-67
2022/03/06 03:34:57;;;;;;;38.67;22.25;;;;;;;1.82;68.30;100950.80;2718776;87;21604;-69
2022/03/06 03:38:58;;;;;;;41.35;21.95;;;;;;;1.98;68.37;100957.67;2718759;87;21701;-68
2022/03/06 03:43:00;;;;;;;38.02;23.92;;;;;;;1.98;67.60;100953.73;2755389;86;21626;-68
2022/03/06 03:47:01;;;;;;;32.00;20.88;;;;;;;1.93;67.51;100960.05;2778514;85;21072;-68
2022/03/06 03:51:04;;;;;;;43.92;24.07;;;;;;;1.85;67.85;100960.31;2778381;85;21069;-67
2022/03/06 03:55:06;;;;;;;43.23;24.07;;;;;;;1.84;67.36;100958.16;2785915;85;21080;-68
2022/03/06 03:59:08;;;;;;;45.83;24.30;;;;;;;1.93;66.37;100955.67;2786117;85;21076;-67
2022/03/06 04:03:10;;;;;;;35.60;24.30;;;;;;;1.97;64.91;100966.45;2766148;86;21065;-67
2022/03/06 04:07:11;;;;;;;30.02;23.05;;;;;;;2.02;63.96;100964.99;2778442;84;21116;-67
2022/03/06 04:11:13;;;;;;;33.92;23.02;;;;;;;2.02;64.96;100966.30;2778548;85;21424;-68
2022/03/06 04:15:14;;;;;;;37.85;21.62;;;;;;;1.93;65.92;100966.61;2785910;85;21085;-68
2022/03/06 04:19:16;;;;;;;29.25;20.35;;;;;;;1.91;66.34;100964.50;2786148;85;21081;-67
2022/03/06 04:23:18;;;;;;;34.05;22.75;;;;;;;1.98;64.54;100958.14;2765876;86;21089;-67
2022/03/06 04:27:19;;;;;;;31.50;21.68;;;;;;;2.07;64.08;100968.30;2779429;85;21073;-67
2022/03/06 04:31:21;;;;;;;33.23;21.62;;;;;;;2.09;63.67;100971.73;2786257;85;21124;-68
2022/03/06 04:35:23;;;;;;;31.15;24.18;;;;;;;2.07;64.32;100972.24;2786675;85;21050;-68
2022/03/06 04:39:24;;;;;;;30.60;23.20;;;;;;;2.13;62.70;100968.55;2766736;86;21065;-68
2022/03/06 04:43:26;;;;;;;33.98;22.70;;;;;;;2.19;62.68;100972.73;2778573;84;21109;-67
2022/03/06 04:47:28;;;;;;;36.33;22.15;;;;;;;2.22;64.24;100968.20;2786727;84;21104;-67
2022/03/06 04:51:30;;;;;;;37.25;23.87;;;;;;;2.11;65.32;100967.75;2786533;85;21077;-68
2022/03/06 04:55:31;;;;;;;43.70;29.45;;;;;;;2.03;66.36;100964.08;2766389;86;21073;-67
2022/03/06 04:59:33;;;;;;;45.28;29.70;;;;;;;2.13;66.71;100961.98;2778039;85;21057;-67
2022/03/06 05:03:35;;;;;;;52.38;29.23;;;;;;;2.21;66.76;100958.61;2786143;85;21085;-68
2022/03/06 05:07:37;;;;;;;43.58;28.73;;;;;;;2.22;66.51;100959.48;2786188;85;21037;-67
2022/03/06 05:11:39;;;;;;;45.23;29.25;;;;;;;2.16;66.12;100957.06;2766416;84;21038;-67
2022/03/06 05:15:41;;;;;;;31.97;23.77;;;;;;;2.23;67.67;100963.83;2778987;84;21022;-67
2022/03/06 05:19:42;;;;;;;51.75;28.32;;;;;;;2.09;66.93;100963.85;2778696;85;21041;-67
2022/03/06 05:23:44;;;;;;;41.75;26.65;;;;;;;2.09;67.56;100967.79;2778696;84;21113;-68
2022/03/06 05:27:46;;;;;;;39.23;26.65;;;;;;;2.16;67.94;100971.50;2778293;85;21069;-67
2022/03/06 05:31:48;;;;;;;40.85;25.75;;;;;;;2.23;67.70;100971.23;2778183;85;21054;-68
2022/03/06 05:35:50;;;;;;;39.60;23.57;;;;;;;2.31;67.95;100974.89;2778348;85;21554;-68
2022/03/06 05:39:51;;;;;;;30.72;20.10;;;;;;;2.33;67.71;100971.75;2778486;84;21061;-67
2022/03/06 05:43:53;;;;;;;152.22;79.15;;;;;;;2.29;66.73;100970.16;2768941;85;21081;-71
2022/03/06 05:47:55;;;;;;;73.00;41.00;;;;;;;2.35;67.45;100980.42;2767011;86;21049;-71
2022/03/06 05:51:56;;;;;;;58.17;33.90;;;;;;;2.38;66.62;100976.41;2767239;85;21568;-71
2022/03/06 05:55:58;;;;;;;38.42;24.82;;;;;;;2.25;66.94;100979.06;2766923;85;21050;-72
2022/03/06 06:00:00;;;;;;;36.05;24.50;;;;;;;2.26;67.90;100975.52;2766709;84;21117;-69
2022/03/06 06:04:02;;;;;;;40.55;25.60;;;;;;;2.10;68.03;100976.06;2762465;86;21089;-71
2022/03/06 06:08:04;;;;;;;35.55;23.22;;;;;;;2.03;67.97;100976.33;2731418;87;21069;-70
2022/03/06 06:12:08;;;;;;;34.45;24.10;;;;;;;2.00;69.48;100975.53;2731187;87;21196;-71
2022/03/06 06:16:10;;;;;;;35.28;21.50;;;;;;;1.97;69.36;100977.42;2743160;84;21045;-72
2022/03/06 06:20:12;;;;;;;37.15;23.15;;;;;;;2.09;69.27;100976.97;2777082;84;21030;-69
2022/03/06 06:24:15;;;;;;;31.10;22.30;;;;;;;2.30;69.46;100981.05;2777391;85;21034;-71
2022/03/06 06:28:16;;;;;;;42.58;25.20;;;;;;;2.43;68.58;100985.40;2777014;85;21074;-71
2022/03/06 06:32:18;;;;;;;43.68;25.17;;;;;;;2.53;69.38;100985.92;2777040;85;21086;-71
2022/03/06 06:36:20;;;;;;;35.13;23.70;;;;;;;2.64;69.52;100979.82;2776891;84;21133;-71
2022/03/06 06:40:21;;;;;;;41.95;25.80;;;;;;;2.59;68.56;100984.40;2775905;85;21077;-67
2022/03/06 06:44:23;;;;;;;36.75;24.95;;;;;;;2.58;68.49;100981.38;2727572;85;22373;-67
2022/03/06 06:48:24;;;;;;;39.70;25.45;;;;;;;2.62;68.08;100985.59;2730557;87;21106;-68
2022/03/06 06:52:26;;;;;;;38.85;26.50;;;;;;;2.60;68.58;100986.11;2766777;86;21069;-68
2022/03/06 06:56:28;;;;;;;39.55;23.60;;;;;;;2.54;68.74;100987.19;2766071;85;21097;-68
2022/03/06 07:00:29;;;;;;;37.03;25.02;;;;;;;2.57;68.40;100987.55;2766489;86;21049;-67
2022/03/06 07:04:31;;;;;;;39.50;27.93;;;;;;;2.65;68.78;100981.53;2766762;84;21037;-68
2022/03/06 07:08:32;;;;;;;31.40;21.45;;;;;;;2.70;68.33;100991.41;2766094;86;21118;-67
2022/03/06 07:12:55;;;;;;;48.92;29.82;;;;;;;2.79;66.75;100989.36;2766355;86;21067;-67
2022/03/06 07:16:56;;;;;;;34.15;22.98;;;;;;;2.77;66.29;100995.13;2766632;86;21109;-67
2022/03/06 07:20:58;;;;;;;47.33;29.50;;;;;;;2.77;67.00;100989.87;2766962;84;21094;-67
2022/03/06 07:25:00;;;;;;;33.45;24.75;;;;;;;2.92;66.82;100995.00;2767017;86;21133;-67
2022/03/06 07:29:02;;;;;;;40.90;26.37;;;;;;;3.04;65.99;100991.03;2766934;86;21054;-67
2022/03/06 07:33:04;;;;;;;59.98;36.85;;;;;;;3.07;65.78;100989.16;2767102;86;21061;-67
2022/03/06 07:37:06;;;;;;;43.52;27.02;;;;;;;3.11;65.68;100989.87;2766946;86;21050;-67
2022/03/06 07:41:08;;;;;;;35.45;23.60;;;;;;;3.07;62.72;100988.28;2766657;84;21053;-67
2022/03/06 07:45:11;;;;;;;33.65;21.35;;;;;;;3.04;62.17;100991.03;2767083;85;21062;-67
2022/03/06 07:49:13;;;;;;;31.15;21.80;;;;;;;3.07;62.96;100989.59;2766984;86;21090;-67
2022/03/06 07:53:15;;;;;;;29.87;24.35;;;;;;;3.12;60.88;100994.20;2767060;86;21046;-67
2022/03/06 07:57:18;;;;;;;36.53;23.30;;;;;;;3.13;61.38;100993.28;2767177;86;21100;-67
2022/03/06 08:01:19;;;;;;;37.88;22.37;;;;;;;3.16;60.64;100989.69;2766860;86;21530;-67
2022/03/06 08:05:21;;;;;;;34.67;20.68;;;;;;;3.27;61.50;100987.03;2767112;86;21123;-67
2022/03/06 08:09:27;;;;;;;24.10;18.45;;;;;;;3.30;60.49;100988.69;2782542;83;21490;-68
2022/03/06 08:13:26;;;;;;;28.90;21.25;;;;;;;3.28;59.96;100995.31;2811797;83;21105;-68
2022/03/06 08:17:28;;;;;;;25.75;18.37;;;;;;;3.13;59.91;100990.22;2813145;83;21054;-67
2022/03/06 08:21:30;;;;;;;31.77;21.82;;;;;;;3.06;58.28;100988.75;2813253;83;22367;-67
2022/03/06 08:25:34;;;;;;;27.13;18.95;;;;;;;3.17;58.52;100988.33;2813272;84;21054;-67
2022/03/06 08:29:36;;;;;;;33.70;22.27;;;;;;;3.33;58.41;100986.37;2813445;84;21038;-66
2022/03/06 08:33:38;;;;;;;23.83;16.45;;;;;;;3.50;58.68;100987.87;2813359;84;21593;-66
2022/03/06 08:37:40;;;;;;;22.52;17.73;;;;;;;3.56;58.90;100977.11;2812364;83;21461;-66
2022/03/06 08:41:42;;;;;;;27.77;17.67;;;;;;;3.53;56.76;100977.69;2813409;83;21804;-66
2022/03/06 08:45:44;;;;;;;22.05;16.15;;;;;;;3.60;55.53;100983.08;2778326;85;21094;-67
2022/03/06 08:49:46;;;;;;;23.12;17.20;;;;;;;3.64;54.92;100983.82;2778298;85;21038;-67
2022/03/06 08:53:47;;;;;;;22.60;17.32;;;;;;;3.71;55.10;100983.50;2778361;85;21037;-67
2022/03/06 08:57:50;;;;;;;23.30;17.00;;;;;;;3.86;55.04;100984.62;2777278;85;21046;-67
2022/03/06 09:01:56;;;;;;;24.72;17.32;;;;;;;3.93;54.87;100979.95;2777671;85;21106;-67
2022/03/06 09:05:55;;;;;;;27.90;16.93;;;;;;;4.02;54.28;100980.02;2776778;85;21064;-67
2022/03/06 09:09:57;;;;;;;22.58;15.70;;;;;;;4.06;54.66;100976.33;2777416;85;21110;-67
2022/03/06 09:13:59;;;;;;;19.67;16.32;;;;;;;4.13;53.84;100980.42;2778067;85;21003;-67
2022/03/06 09:18:01;;;;;;;23.67;15.32;;;;;;;4.17;54.16;100985.55;2778144;84;21597;-67
2022/03/06 09:22:04;;;;;;;22.93;16.42;;;;;;;4.23;53.85;100987.45;2777904;85;20983;-67
2022/03/06 09:26:06;;;;;;;26.70;19.12;;;;;;;4.27;53.27;100986.39;2777710;85;21050;-67
2022/03/06 09:30:12;;;;;;;26.70;17.65;;;;;;;4.27;53.54;100989.03;2777873;85;21121;-67
2022/03/06 09:34:17;;;;;;;21.23;17.32;;;;;;;4.31;53.65;100991.04;2777784;84;21104;-67
2022/03/06 09:38:19;;;;;;;21.70;16.20;;;;;;;4.35;53.61;100978.16;2776876;85;21121;-67
2022/03/06 09:42:23;;;;;;;21.05;17.05;;;;;;;4.36;51.37;100986.45;2775530;85;21095;-67
2022/03/06 09:46:25;;;;;;;24.07;17.90;;;;;;;4.31;52.36;100985.77;2769259;84;21105;-67
2022/03/06 09:50:27;;;;;;;19.25;14.58;;;;;;;4.35;52.28;100996.59;2769183;86;21391;-67
2022/03/06 09:54:29;;;;;;;19.70;15.30;;;;;;;4.32;51.78;100998.50;2769931;86;21558;-66
2022/03/06 09:58:31;;;;;;;32.63;16.20;;;;;;;4.31;51.71;100996.79;2769074;86;21054;-67
2022/03/06 10:02:48;;;;;;;19.35;16.15;;;;;;;4.34;51.86;101001.91;2770004;86;21046;-66
2022/03/06 10:07:07;;;;;;;27.45;15.83;;;;;;;4.43;51.46;101002.36;2768730;84;21035;-66
2022/03/06 10:11:12;;;;;;;22.35;16.12;;;;;;;4.42;51.48;101004.60;2768959;86;21058;-66
2022/03/06 10:15:17;;;;;;;27.93;16.37;;;;;;;4.48;49.91;101002.16;2769513;86;21090;-66
2022/03/06 10:19:17;;;;;;;21.15;16.97;;;;;;;4.56;50.34;101001.82;2769393;86;21590;-66
2022/03/06 10:23:27;;;;;;;18.37;14.03;;;;;;;4.58;48.80;101002.60;2769605;86;21118;-66
2022/03/06 10:27:57;;;;;;;19.12;14.55;;;;;;;4.54;47.05;101001.04;2769339;85;21042;-68
2022/03/06 10:31:58;;;;;;;22.48;18.48;;;;;;;4.55;47.81;101000.11;2768284;86;21055;-68
2022/03/06 10:36:02;;;;;;;13.32;11.43;;;;;;;4.65;48.75;100998.75;2769507;86;21000;-69
2022/03/06 10:40:06;;;;;;;26.85;14.20;;;;;;;4.73;47.02;101000.20;2769421;85;21124;-70
2022/03/06 10:44:10;;;;;;;25.75;16.93;;;;;;;4.75;46.42;100989.13;2762557;86;21051;-69
2022/03/06 10:48:16;;;;;;;19.65;13.80;;;;;;;4.84;46.89;100990.00;2775879;85;21125;-69
2022/03/06 10:52:21;;;;;;;21.02;12.73;;;;;;;4.92;47.71;100989.20;2813132;83;21110;-68
2022/03/06 10:56:26;;;;;;;13.35;11.28;;;;;;;5.02;48.07;100982.16;2813315;83;21105;-69
2022/03/06 11:00:33;;;;;;;20.15;13.53;;;;;;;5.07;47.53;100975.73;2813018;83;21133;-69
2022/03/06 11:04:37;;;;;;;22.65;13.32;;;;;;;5.14;46.44;100976.31;2813465;84;21409;-69
2022/03/06 11:08:39;;;;;;;16.57;13.93;;;;;;;5.19;46.38;100973.42;2813441;83;21114;-68
2022/03/06 11:12:41;;;;;;;21.23;12.75;;;;;;;5.32;46.11;100981.63;2813416;84;21038;-68
2022/03/06 11:16:45;;;;;;;14.18;11.65;;;;;;;5.32;46.07;100971.07;2813121;84;21042;-68
2022/03/06 11:20:47;;;;;;;16.37;12.60;;;;;;;5.38;45.66;100964.16;2813169;84;21042;-68
2022/03/06 11:24:55;;;;;;;17.70;12.82;;;;;;;5.48;46.06;100963.25;2812763;83;21094;-66
2022/03/06 11:29:20;;;;;;;16.93;11.38;;;;;;;5.58;46.67;100954.79;2794663;84;21050;-66
2022/03/06 11:33:25;;;;;;;15.78;12.82;;;;;;;5.74;46.13;100950.06;2770618;84;21058;-65
2022/03/06 11:37:28;;;;;;;14.93;12.68;;;;;;;5.85;47.44;100943.75;2772140;84;21034;-66
2022/03/06 11:41:35;;;;;;;17.07;13.13;;;;;;;5.74;44.39;100942.14;2768329;85;21022;-65
2022/03/06 11:45:53;;;;;;;19.35;12.37;;;;;;;5.82;44.61;100930.70;2767132;85;21114;-65
2022/03/06 11:49:59;;;;;;;20.00;14.25;;;;;;;5.75;45.49;100928.01;2767385;85;21105;-68
2022/03/06 11:54:09;;;;;;;17.85;12.85;;;;;;;5.70;46.20;100922.95;2787124;84;21086;-68
2022/03/06 11:58:11;;;;;;;16.87;13.20;;;;;;;5.79;47.39;100912.39;2814212;84;21123;-68
2022/03/06 12:02:16;;;;;;;22.25;14.65;;;;;;;5.81;47.18;100915.80;2813997;84;21025;-68
2022/03/06 12:06:18;;;;;;;14.87;13.05;;;;;;;5.81;46.97;100907.05;2814145;83;21032;-68
2022/03/06 12:10:20;;;;;;;14.07;12.58;;;;;;;5.84;47.62;100913.00;2811303;83;21589;-69
2022/03/06 12:14:26;;;;;;;25.45;13.80;;;;;;;5.76;46.54;100901.13;2764563;84;21086;-69
2022/03/06 12:18:28;;;;;;;20.05;15.35;;;;;;;5.72;46.12;100900.45;2813648;84;21098;-70
2022/03/06 12:22:36;;;;;;;14.50;12.73;;;;;;;5.65;45.85;100900.36;2813937;84;21046;-70
2022/03/06 12:26:45;;;;;;;16.23;12.90;;;;;;;5.47;45.55;100896.89;2813449;84;21046;-68
2022/03/06 12:30:48;;;;;;;17.65;14.20;;;;;;;5.50;45.61;100895.41;2813494;84;21141;-70
2022/03/06 12:34:59;;;;;;;18.10;14.53;;;;;;;5.18;45.72;100896.09;2813908;84;21022;-70
2022/03/06 12:39:05;;;;;;;23.38;16.17;;;;;;;5.20;46.50;100890.73;2813184;84;21548;-70
2022/03/06 12:43:08;;;;;;;29.02;20.45;;;;;;;4.80;46.68;100889.59;2805977;84;21614;-70
2022/03/06 12:47:10;;;;;;;22.35;16.37;;;;;;;4.75;47.84;100887.65;2813320;83;21046;-69
2022/03/06 12:51:12;;;;;;;17.57;15.60;;;;;;;4.67;48.11;100886.69;2812306;84;21054;-69
2022/03/06 12:55:18;;;;;;;20.62;14.53;;;;;;;4.53;48.22;100888.67;2806088;84;21035;-71
2022/03/06 12:59:20;;;;;;;24.98;15.43;;;;;;;4.48;47.78;100882.73;2807048;84;21085;-69
2022/03/06 13:03:26;;;;;;;24.02;17.15;;;;;;;4.51;49.01;100882.58;2813086;84;21022;-69
2022/03/06 13:07:33;;;;;;;18.75;14.28;;;;;;;4.61;49.38;100885.64;2813095;84;21018;-70
2022/03/06 13:11:39;;;;;;;16.73;14.28;;;;;;;4.66;49.50;100881.87;2812574;84;21044;-69
2022/03/06 13:15:41;;;;;;;22.85;17.17;;;;;;;4.67;49.64;100878.30;2812708;84;21067;-68
2022/03/06 13:19:56;;;;;;;23.10;16.00;;;;;;;4.75;49.40;100882.38;2785261;84;21049;-70
2022/03/06 13:24:03;;;;;;;20.12;15.70;;;;;;;4.63;48.67;100884.66;2798420;84;21114;-68
2022/03/06 13:28:08;;;;;;;19.07;15.28;;;;;;;4.60;49.36;100876.90;2786103;84;21587;-66
2022/03/06 13:32:09;;;;;;;29.05;18.37;;;;;;;4.41;51.46;100872.49;2794353;83;21057;-64
2022/03/06 13:36:15;;;;;;;25.15;17.00;;;;;;;4.40;52.88;100876.50;2794376;83;21658;-65
2022/03/06 13:40:17;;;;;;;21.12;15.90;;;;;;;4.26;52.81;100874.52;2794471;84;21482;-67
2022/03/06 13:44:21;;;;;;;21.48;17.12;;;;;;;4.27;53.41;100874.91;2788025;84;21038;-66
2022/03/06 13:48:35;;;;;;;25.00;18.10;;;;;;;4.23;52.88;100872.02;2758893;85;21356;-66
2022/03/06 13:52:37;;;;;;;24.57;16.15;;;;;;;4.22;52.80;100881.69;2778249;85;21097;-65
2022/03/06 13:56:46;;;;;;;23.50;15.95;;;;;;;4.23;53.21;100875.53;2777395;84;21252;-66
2022/03/06 14:00:58;;;;;;;22.67;15.88;;;;;;;4.25;52.75;100876.31;2776924;84;21043;-66
2022/03/06 14:05:07;;;;;;;17.92;13.78;;;;;;;4.26;52.19;100881.09;2802009;84;21011;-66
2022/03/06 14:09:27;;;;;;;22.32;13.93;;;;;;;4.13;51.24;100877.73;2797764;84;21049;-66
2022/03/06 14:13:39;;;;;;;19.15;15.08;;;;;;;3.99;50.93;100875.70;2802962;84;21066;-66
2022/03/06 14:17:44;;;;;;;24.55;16.97;;;;;;;3.79;49.37;100877.91;2805889;84;21018;-66
2022/03/06 14:21:47;;;;;;;23.67;14.23;;;;;;;3.78;50.03;100870.94;2804964;84;21070;-66
2022/03/06 14:25:48;;;;;;;20.17;16.35;;;;;;;3.82;50.30;100867.24;2781457;84;21074;-66
2022/03/06 14:29:50;;;;;;;36.98;21.93;;;;;;;3.92;51.68;100869.00;2777737;85;21030;-66
2022/03/06 14:33:52;;;;;;;14.65;12.35;;;;;;;4.01;51.16;100870.38;2769787;85;21081;-66
2022/03/06 14:37:56;;;;;;;17.20;13.90;;;;;;;3.94;50.32;100872.42;2755376;85;21077;-66
2022/03/06 14:42:03;;;;;;;17.75;12.47;;;;;;;3.98;50.20;100874.47;2755124;85;21125;-66
2022/03/06 14:46:08;;;;;;;16.50;12.05;;;;;;;3.99;49.46;100874.86;2757849;85;21094;-66
2022/03/06 14:50:10;;;;;;;14.03;11.43;;;;;;;3.93;47.56;100869.40;2769184;86;21110;-66
2022/03/06 14:54:13;;;;;;;15.78;11.10;;;;;;;3.99;50.45;100870.91;2769684;86;21038;-66
2022/03/06 14:58:15;;;;;;;12.43;9.53;;;;;;;4.04;49.69;100871.55;2769291;86;21161;-66
2022/03/06 15:02:16;;;;;;;16.15;12.03;;;;;;;3.87;50.11;100871.00;2767893;84;21006;-66
2022/03/06 15:06:18;;;;;;;17.90;12.13;;;;;;;3.57;51.13;100874.03;2767848;86;21011;-66
2022/03/06 15:10:20;;;;;;;15.30;12.37;;;;;;;3.32;50.70;100876.84;2767895;84;21046;-66
2022/03/06 15:14:22;;;;;;;20.68;13.38;;;;;;;3.28;52.96;100876.98;2797577;85;21039;-66
2022/03/06 15:18:24;;;;;;;14.15;10.93;;;;;;;3.16;51.73;100878.83;2797508;85;21097;-66
2022/03/06 15:22:25;;;;;;;13.53;11.63;;;;;;;3.07;52.30;100882.69;2796909;83;21063;-66
2022/03/06 15:26:27;;;;;;;17.23;11.73;;;;;;;3.03;53.14;100885.02;2834946;83;21753;-67
2022/03/06 15:30:28;;;;;;;13.55;10.03;;;;;;;2.74;52.53;100883.12;2796548;85;21080;-66
2022/03/06 15:34:30;;;;;;;13.08;10.58;;;;;;;2.65;54.13;100886.96;2796765;85;21072;-66
2022/03/06 15:38:32;;;;;;;16.27;12.05;;;;;;;2.63;54.74;100890.11;2796322;85;21056;-67
2022/03/06 15:42:34;;;;;;;15.80;12.23;;;;;;;2.53;53.54;100885.67;2796189;85;21096;-66
2022/03/06 15:46:36;;;;;;;14.07;11.75;;;;;;;2.50;54.46;100890.17;2785375;84;21089;-66
2022/03/06 15:50:38;;;;;;;20.08;15.55;;;;;;;2.55;54.20;100889.09;2784133;84;21038;-66
2022/03/06 15:54:39;;;;;;;22.55;14.35;;;;;;;2.53;53.92;100895.30;2809020;83;21034;-66
2022/03/06 15:58:41;;;;;;;26.52;16.32;;;;;;;2.46;54.40;100899.97;2775166;84;21053;-66
2022/03/06 16:02:42;;;;;;;18.32;13.93;;;;;;;2.39;53.86;100899.34;2729392;87;21027;-66
2022/03/06 16:06:45;;;;;;;21.02;15.50;;;;;;;2.42;54.01;100907.53;2765339;86;21717;-66
2022/03/06 16:10:47;;;;;;;24.37;15.78;;;;;;;2.45;54.85;100910.52;2765326;85;21030;-66
2022/03/06 16:14:48;;;;;;;21.97;16.07;;;;;;;2.42;55.99;100908.84;2770260;84;21208;-67
2022/03/06 16:18:50;;;;;;;29.82;17.48;;;;;;;2.39;56.43;100911.16;2769180;83;22020;-73
2022/03/06 16:22:52;;;;;;;21.42;16.30;;;;;;;2.37;55.66;100917.36;2764788;84;21094;-68
2022/03/06 16:26:53;;;;;;;25.02;17.35;;;;;;;2.44;56.65;100913.58;2787201;84;20994;-67
2022/03/06 16:30:56;;;;;;;24.77;18.12;;;;;;;2.51;56.08;100913.77;2789695;84;21042;-68
2022/03/06 16:34:57;;;;;;;22.20;16.35;;;;;;;2.57;54.48;100915.31;2797741;84;21123;-67
2022/03/06 16:39:01;;;;;;;26.30;19.67;;;;;;;2.67;55.74;100907.93;2808375;83;21082;-67
2022/03/06 16:43:03;;;;;;;20.12;15.90;;;;;;;2.66;56.01;100909.69;2811212;84;21564;-66
2022/03/06 16:47:06;;;;;;;20.32;16.32;;;;;;;2.55;57.24;100906.60;2802364;84;21122;-68
2022/03/06 16:51:08;;;;;;;20.88;15.65;;;;;;;2.45;57.30;100907.41;2731108;87;21085;-66
2022/03/06 16:55:09;;;;;;;27.05;18.57;;;;;;;2.37;57.72;100909.05;2731865;87;21074;-66
2022/03/06 16:59:11;;;;;;;23.92;19.05;;;;;;;2.50;57.58;100911.19;2752951;85;21087;-67
2022/03/06 17:03:13;;;;;;;30.35;20.08;;;;;;;2.67;57.59;100915.34;2753353;85;21068;-67
2022/03/06 17:07:16;;;;;;;23.27;19.95;;;;;;;2.86;57.31;100917.25;2753461;85;30625;-67
2022/03/06 17:11:23;;;;;;;28.30;22.00;;;;;;;3.03;57.49;100919.19;2760909;84;21046;-67
2022/03/06 17:15:26;;;;;;;24.82;20.40;;;;;;;3.13;57.07;100917.91;2731571;87;21045;-67
2022/03/06 17:19:30;;;;;;;27.17;19.65;;;;;;;3.23;57.03;100925.41;2731807;87;21073;-67
2022/03/06 17:23:33;;;;;;;25.32;19.25;;;;;;;3.28;57.20;100921.69;2806862;84;21147;-67
2022/03/06 17:27:39;;;;;;;27.50;20.80;;;;;;;3.33;56.82;100925.45;2828928;83;21138;-67
2022/03/06 17:31:42;;;;;;;30.75;20.72;;;;;;;3.36;57.10;100927.11;2807095;84;21134;-67
2022/03/06 17:35:45;;;;;;;28.45;20.97;;;;;;;3.40;56.96;100931.31;2823813;83;21083;-67
2022/03/06 17:39:48;;;;;;;32.28;23.52;;;;;;;3.41;57.02;100928.60;2826283;83;21086;-67
2022/03/06 17:43:51;;;;;;;29.12;20.25;;;;;;;3.33;57.42;100928.52;2764843;84;21038;-67
2022/03/06 17:47:56;;;;;;;27.73;21.73;;;;;;;3.24;56.89;100934.57;2752876;84;21126;-67
2022/03/06 17:52:00;;;;;;;24.18;19.67;;;;;;;3.12;56.97;100937.69;2828464;84;21063;-67
2022/03/06 17:56:03;;;;;;;31.48;22.73;;;;;;;2.96;56.85;100931.75;2827515;84;21087;-67
2022/03/06 18:00:12;;;;;;;34.15;24.47;;;;;;;2.93;57.88;100930.53;2829517;84;21007;-67
2022/03/06 18:04:15;;;;;;;37.17;24.72;;;;;;;2.91;56.49;100937.63;2829271;84;21031;-66
2022/03/06 18:08:18;;;;;;;34.33;24.60;;;;;;;2.92;58.10;100943.27;2785359;85;21047;-67
2022/03/06 18:12:21;;;;;;;33.92;24.32;;;;;;;3.02;59.35;100949.02;2785579;84;21521;-67
2022/03/06 18:16:24;;;;;;;37.45;26.77;;;;;;;3.02;58.39;100953.44;2775379;84;21049;-67
2022/03/06 18:20:30;;;;;;;39.23;27.58;;;;;;;2.88;57.78;100957.45;2785544;85;21042;-67
2022/03/06 18:24:38;;;;;;;35.13;27.73;;;;;;;2.75;57.50;100958.39;2784882;85;21110;-66
2022/03/06 18:28:49;;;;;;;37.03;25.25;;;;;;;2.76;57.23;100964.52;2784560;85;21102;-67
2022/03/06 18:32:57;;;;;;;31.52;22.30;;;;;;;2.74;58.04;100959.75;2798989;84;21073;-66
2022/03/06 18:36:59;;;;;;;34.35;23.65;;;;;;;2.69;57.96;100959.48;2808712;84;21014;-67